sensor_id;sensor_type;location;lat;lon;timestamp;temperature;humidity
11152;DHT22;5630;49.342;10.802;2022-11-23T00:00:09;4.30;99.90
11152;DHT22;5630;49.342;10.802;2022-11-23T00:02:35;4.30;99.90
11152;DHT22;5630;49.342;10.802;2022-11-23T00:05:01;4.30;99.90
11152;DHT22;5630;49.342;10.802;2022-11-23T00:07:26;4.20;99.90
11152;DHT22;5630;49.342;10.802;2022-11-23T00:09:52;4.20;99.90
11152;DHT22;5630;49.342;10.802;2022-11-23T00:12:17;4.20;99.90
11152;DHT22;5630;49.342;10.802;2022-11-23T00:14:43;4.20;99.90
11152;DHT22;5630;49.342;10.802;2022-11-23T00:17:08;4.20;99.90
11152;DHT22;5630;49.342;10.802;2022-11-23T00:19:34;4.20;99.90
11152;DHT22;5630;49.342;10.802;2022-11-23T00:21:59;4.10;99.90
11152;DHT22;5630;49.342;10.802;2022-11-23T00:24:25;4.10;99.90
11152;DHT22;5630;49.342;10.802;2022-11-23T00:26:51;4.10;99.90
11152;DHT22;5630;49.342;10.802;2022-11-23T00:29:16;4.20;99.90
11152;DHT22;5630;49.342;10.802;2022-11-23T00:31:42;4.10;99.90
11152;DHT22;5630;49.342;10.802;2022-11-23T00:34:07;4.00;99.90
11152;DHT22;5630;49.342;10.802;2022-11-23T00:36:33;4.00;99.90
11152;DHT22;5630;49.342;10.802;2022-11-23T00:38:58;4.10;99.90
11152;DHT22;5630;49.342;10.802;2022-11-23T00:41:26;4.00;99.90
11152;DHT22;5630;49.342;10.802;2022-11-23T00:43:52;4.00;99.90
11152;DHT22;5630;49.342;10.802;2022-11-23T00:46:25;4.10;99.90
11152;DHT22;5630;49.342;10.802;2022-11-23T00:48:52;4.00;99.90
11152;DHT22;5630;49.342;10.802;2022-11-23T00:51:21;4.00;99.90
11152;DHT22;5630;49.342;10.802;2022-11-23T00:53:48;4.00;99.90
11152;DHT22;5630;49.342;10.802;2022-11-23T00:56:14;4.00;99.90
11152;DHT22;5630;49.342;10.802;2022-11-23T00:58:41;3.90;99.90
11152;DHT22;5630;49.342;10.802;2022-11-23T01:01:09;3.90;99.90
11152;DHT22;5630;49.342;10.802;2022-11-23T01:03:37;3.90;99.90
11152;DHT22;5630;49.342;10.802;2022-11-23T01:06:08;3.80;99.90
11152;DHT22;5630;49.342;10.802;2022-11-23T01:08:35;3.80;99.90
11152;DHT22;5630;49.342;10.802;2022-11-23T01:11:03;3.80;99.90
11152;DHT22;5630;49.342;10.802;2022-11-23T01:13:30;3.80;99.90
11152;DHT22;5630;49.342;10.802;2022-11-23T01:15:56;3.70;99.90
11152;DHT22;5630;49.342;10.802;2022-11-23T01:18:22;3.70;99.90
11152;DHT22;5630;49.342;10.802;2022-11-23T01:20:48;3.70;99.90
11152;DHT22;5630;49.342;10.802;2022-11-23T01:23:13;3.70;99.90
11152;DHT22;5630;49.342;10.802;2022-11-23T01:25:39;3.70;99.90
11152;DHT22;5630;49.342;10.802;2022-11-23T01:28:05;3.70;99.90
11152;DHT22;5630;49.342;10.802;2022-11-23T01:30:30;3.60;99.90
11152;DHT22;5630;49.342;10.802;2022-11-23T01:32:56;3.60;99.90
11152;DHT22;5630;49.342;10.802;2022-11-23T01:35:21;3.60;99.90
11152;DHT22;5630;49.342;10.802;2022-11-23T01:37:47;3.60;99.90
11152;DHT22;5630;49.342;10.802;2022-11-23T01:40:13;3.60;99.90
11152;DHT22;5630;49.342;10.802;2022-11-23T01:45:35;3.60;99.90
11152;DHT22;5630;49.342;10.802;2022-11-23T01:48:03;3.50;99.90
11152;DHT22;5630;49.342;10.802;2022-11-23T01:50:30;3.50;99.90
11152;DHT22;5630;49.342;10.802;2022-11-23T01:52:56;3.50;99.90
11152;DHT22;5630;49.342;10.802;2022-11-23T01:55:22;3.50;99.90
11152;DHT22;5630;49.342;10.802;2022-11-23T01:57:48;3.50;99.90
11152;DHT22;5630;49.342;10.802;2022-11-23T02:00:14;3.50;99.90
11152;DHT22;5630;49.342;10.802;2022-11-23T02:02:46;3.50;99.90
11152;DHT22;5630;49.342;10.802;2022-11-23T02:05:15;3.50;99.90
11152;DHT22;5630;49.342;10.802;2022-11-23T02:07:41;3.50;99.90
11152;DHT22;5630;49.342;10.802;2022-11-23T02:10:07;3.50;99.90
11152;DHT22;5630;49.342;10.802;2022-11-23T02:12:33;3.40;99.90
11152;DHT22;5630;49.342;10.802;2022-11-23T02:14:58;3.40;99.90
11152;DHT22;5630;49.342;10.802;2022-11-23T02:17:24;3.40;99.90
11152;DHT22;5630;49.342;10.802;2022-11-23T02:20:09;3.40;99.90
11152;DHT22;5630;49.342;10.802;2022-11-23T02:22:45;3.40;99.90
11152;DHT22;5630;49.342;10.802;2022-11-23T02:28:22;3.30;99.90
11152;DHT22;5630;49.342;10.802;2022-11-23T02:30:50;3.30;99.90
11152;DHT22;5630;49.342;10.802;2022-11-23T02:33:17;3.20;99.90
11152;DHT22;5630;49.342;10.802;2022-11-23T02:35:54;3.20;99.90
11152;DHT22;5630;49.342;10.802;2022-11-23T02:38:20;3.20;99.90
11152;DHT22;5630;49.342;10.802;2022-11-23T02:40:47;3.30;99.90
11152;DHT22;5630;49.342;10.802;2022-11-23T02:43:13;3.30;99.90
11152;DHT22;5630;49.342;10.802;2022-11-23T02:45:44;3.30;99.90
11152;DHT22;5630;49.342;10.802;2022-11-23T02:48:11;3.20;99.90
11152;DHT22;5630;49.342;10.802;2022-11-23T02:50:37;3.20;99.90
11152;DHT22;5630;49.342;10.802;2022-11-23T02:53:02;3.20;99.90
11152;DHT22;5630;49.342;10.802;2022-11-23T02:55:28;3.20;99.90
11152;DHT22;5630;49.342;10.802;2022-11-23T02:57:53;3.20;99.90
11152;DHT22;5630;49.342;10.802;2022-11-23T03:00:19;3.20;99.90
11152;DHT22;5630;49.342;10.802;2022-11-23T03:02:45;3.20;99.90
11152;DHT22;5630;49.342;10.802;2022-11-23T03:05:11;3.20;99.90
11152;DHT22;5630;49.342;10.802;2022-11-23T03:07:36;3.20;99.90
11152;DHT22;5630;49.342;10.802;2022-11-23T03:10:03;3.10;99.90
11152;DHT22;5630;49.342;10.802;2022-11-23T03:12:29;3.10;99.90
11152;DHT22;5630;49.342;10.802;2022-11-23T03:14:54;3.20;99.90
11152;DHT22;5630;49.342;10.802;2022-11-23T03:17:20;3.20;99.90
11152;DHT22;5630;49.342;10.802;2022-11-23T03:19:46;3.20;99.90
11152;DHT22;5630;49.342;10.802;2022-11-23T03:22:11;3.20;99.90
11152;DHT22;5630;49.342;10.802;2022-11-23T03:24:37;3.20;99.90
11152;DHT22;5630;49.342;10.802;2022-11-23T03:27:03;3.20;99.90
11152;DHT22;5630;49.342;10.802;2022-11-23T03:29:28;3.10;99.90
11152;DHT22;5630;49.342;10.802;2022-11-23T03:31:54;3.10;99.90
11152;DHT22;5630;49.342;10.802;2022-11-23T03:34:21;3.10;99.90
11152;DHT22;5630;49.342;10.802;2022-11-23T03:36:47;3.10;99.90
11152;DHT22;5630;49.342;10.802;2022-11-23T03:39:12;3.00;99.90
11152;DHT22;5630;49.342;10.802;2022-11-23T03:41:38;3.00;99.90
11152;DHT22;5630;49.342;10.802;2022-11-23T03:44:04;3.10;99.90
11152;DHT22;5630;49.342;10.802;2022-11-23T03:46:29;3.10;99.90
11152;DHT22;5630;49.342;10.802;2022-11-23T03:48:55;3.10;99.90
11152;DHT22;5630;49.342;10.802;2022-11-23T03:51:21;3.10;99.90
11152;DHT22;5630;49.342;10.802;2022-11-23T03:53:47;3.10;99.90
11152;DHT22;5630;49.342;10.802;2022-11-23T03:56:13;3.10;99.90
11152;DHT22;5630;49.342;10.802;2022-11-23T03:58:38;3.00;99.90
11152;DHT22;5630;49.342;10.802;2022-11-23T04:01:04;3.00;99.90
11152;DHT22;5630;49.342;10.802;2022-11-23T04:03:30;3.00;99.90
11152;DHT22;5630;49.342;10.802;2022-11-23T04:05:55;3.00;99.90
11152;DHT22;5630;49.342;10.802;2022-11-23T04:08:21;3.00;99.90
11152;DHT22;5630;49.342;10.802;2022-11-23T04:10:46;3.10;99.90
11152;DHT22;5630;49.342;10.802;2022-11-23T04:13:12;3.10;99.90
11152;DHT22;5630;49.342;10.802;2022-11-23T04:15:37;3.10;99.90
11152;DHT22;5630;49.342;10.802;2022-11-23T04:18:03;3.10;99.90
11152;DHT22;5630;49.342;10.802;2022-11-23T04:20:29;3.10;99.90
11152;DHT22;5630;49.342;10.802;2022-11-23T04:22:54;3.10;99.90
11152;DHT22;5630;49.342;10.802;2022-11-23T04:25:20;3.10;99.90
11152;DHT22;5630;49.342;10.802;2022-11-23T04:27:45;3.20;99.90
11152;DHT22;5630;49.342;10.802;2022-11-23T04:30:11;3.20;99.90
11152;DHT22;5630;49.342;10.802;2022-11-23T04:32:37;3.20;99.90
11152;DHT22;5630;49.342;10.802;2022-11-23T04:35:03;3.30;99.90
11152;DHT22;5630;49.342;10.802;2022-11-23T04:37:29;3.30;99.90
11152;DHT22;5630;49.342;10.802;2022-11-23T04:39:55;3.20;99.90
11152;DHT22;5630;49.342;10.802;2022-11-23T04:42:20;3.30;99.90
11152;DHT22;5630;49.342;10.802;2022-11-23T04:44:46;3.30;99.90
11152;DHT22;5630;49.342;10.802;2022-11-23T04:47:12;3.30;99.90
11152;DHT22;5630;49.342;10.802;2022-11-23T04:49:38;3.30;99.90
11152;DHT22;5630;49.342;10.802;2022-11-23T04:52:04;3.30;99.90
11152;DHT22;5630;49.342;10.802;2022-11-23T04:54:30;3.30;99.90
11152;DHT22;5630;49.342;10.802;2022-11-23T04:56:55;3.40;99.90
11152;DHT22;5630;49.342;10.802;2022-11-23T04:59:21;3.40;99.90
11152;DHT22;5630;49.342;10.802;2022-11-23T05:01:48;3.40;99.90
11152;DHT22;5630;49.342;10.802;2022-11-23T05:04:14;3.40;99.90
11152;DHT22;5630;49.342;10.802;2022-11-23T05:06:39;3.50;99.90
11152;DHT22;5630;49.342;10.802;2022-11-23T05:09:07;3.50;99.90
11152;DHT22;5630;49.342;10.802;2022-11-23T05:11:33;3.50;99.90
11152;DHT22;5630;49.342;10.802;2022-11-23T05:13:59;3.50;99.90
11152;DHT22;5630;49.342;10.802;2022-11-23T05:16:24;3.50;99.90
11152;DHT22;5630;49.342;10.802;2022-11-23T05:18:50;3.50;99.90
11152;DHT22;5630;49.342;10.802;2022-11-23T05:21:15;3.50;99.90
11152;DHT22;5630;49.342;10.802;2022-11-23T05:23:41;3.50;99.90
11152;DHT22;5630;49.342;10.802;2022-11-23T05:26:06;3.60;99.90
11152;DHT22;5630;49.342;10.802;2022-11-23T05:28:32;3.60;99.90
11152;DHT22;5630;49.342;10.802;2022-11-23T05:30:57;3.50;99.90
11152;DHT22;5630;49.342;10.802;2022-11-23T05:33:23;3.50;99.90
11152;DHT22;5630;49.342;10.802;2022-11-23T05:35:48;3.50;99.90
11152;DHT22;5630;49.342;10.802;2022-11-23T05:38:14;3.50;99.90
11152;DHT22;5630;49.342;10.802;2022-11-23T05:40:40;3.60;99.90
11152;DHT22;5630;49.342;10.802;2022-11-23T05:43:05;3.70;99.90
11152;DHT22;5630;49.342;10.802;2022-11-23T05:45:31;3.60;99.90
11152;DHT22;5630;49.342;10.802;2022-11-23T05:47:57;3.60;99.90
11152;DHT22;5630;49.342;10.802;2022-11-23T05:50:25;3.70;99.90
11152;DHT22;5630;49.342;10.802;2022-11-23T05:52:51;3.70;99.90
11152;DHT22;5630;49.342;10.802;2022-11-23T05:55:16;3.70;99.90
11152;DHT22;5630;49.342;10.802;2022-11-23T05:57:42;3.70;99.90
11152;DHT22;5630;49.342;10.802;2022-11-23T06:00:08;3.80;99.90
11152;DHT22;5630;49.342;10.802;2022-11-23T06:02:37;3.80;99.90
11152;DHT22;5630;49.342;10.802;2022-11-23T06:05:03;3.80;99.90
11152;DHT22;5630;49.342;10.802;2022-11-23T06:07:31;3.80;99.90
11152;DHT22;5630;49.342;10.802;2022-11-23T06:09:57;3.80;99.90
11152;DHT22;5630;49.342;10.802;2022-11-23T06:12:22;3.80;99.90
11152;DHT22;5630;49.342;10.802;2022-11-23T06:14:48;3.80;99.90
11152;DHT22;5630;49.342;10.802;2022-11-23T06:17:14;3.80;99.90
11152;DHT22;5630;49.342;10.802;2022-11-23T06:19:39;3.90;99.90
11152;DHT22;5630;49.342;10.802;2022-11-23T06:22:05;3.90;99.90
11152;DHT22;5630;49.342;10.802;2022-11-23T06:24:31;3.90;99.90
11152;DHT22;5630;49.342;10.802;2022-11-23T06:26:56;4.00;99.90
11152;DHT22;5630;49.342;10.802;2022-11-23T06:29:22;3.90;99.90
11152;DHT22;5630;49.342;10.802;2022-11-23T06:31:47;3.90;99.90
11152;DHT22;5630;49.342;10.802;2022-11-23T06:34:13;3.90;99.90
11152;DHT22;5630;49.342;10.802;2022-11-23T06:36:39;3.90;99.90
11152;DHT22;5630;49.342;10.802;2022-11-23T06:39:04;3.90;99.90
11152;DHT22;5630;49.342;10.802;2022-11-23T06:41:30;3.90;99.90
11152;DHT22;5630;49.342;10.802;2022-11-23T06:43:55;3.90;99.90
11152;DHT22;5630;49.342;10.802;2022-11-23T06:46:21;3.90;99.90
11152;DHT22;5630;49.342;10.802;2022-11-23T06:48:47;4.00;99.90
11152;DHT22;5630;49.342;10.802;2022-11-23T06:51:13;4.00;99.90
11152;DHT22;5630;49.342;10.802;2022-11-23T06:53:40;4.00;99.90
11152;DHT22;5630;49.342;10.802;2022-11-23T06:56:06;4.00;99.90
11152;DHT22;5630;49.342;10.802;2022-11-23T06:58:33;4.10;99.90
11152;DHT22;5630;49.342;10.802;2022-11-23T07:01:03;4.10;99.90
11152;DHT22;5630;49.342;10.802;2022-11-23T07:03:30;4.10;99.90
11152;DHT22;5630;49.342;10.802;2022-11-23T07:05:55;4.60;99.90
11152;DHT22;5630;49.342;10.802;2022-11-23T07:08:21;5.30;99.90
11152;DHT22;5630;49.342;10.802;2022-11-23T07:10:47;5.30;99.90
11152;DHT22;5630;49.342;10.802;2022-11-23T07:13:13;5.20;99.90
11152;DHT22;5630;49.342;10.802;2022-11-23T07:15:39;5.10;99.90
11152;DHT22;5630;49.342;10.802;2022-11-23T07:18:05;4.90;99.90
11152;DHT22;5630;49.342;10.802;2022-11-23T07:20:32;4.80;99.90
11152;DHT22;5630;49.342;10.802;2022-11-23T07:23:09;4.70;99.90
11152;DHT22;5630;49.342;10.802;2022-11-23T07:25:36;4.70;99.90
11152;DHT22;5630;49.342;10.802;2022-11-23T07:28:03;4.60;99.90
11152;DHT22;5630;49.342;10.802;2022-11-23T07:30:30;4.60;99.90
11152;DHT22;5630;49.342;10.802;2022-11-23T07:33:04;4.60;99.90
11152;DHT22;5630;49.342;10.802;2022-11-23T07:35:31;4.60;99.90
11152;DHT22;5630;49.342;10.802;2022-11-23T07:38:00;4.50;99.90
11152;DHT22;5630;49.342;10.802;2022-11-23T07:40:27;4.50;99.90
11152;DHT22;5630;49.342;10.802;2022-11-23T07:42:52;4.50;99.90
11152;DHT22;5630;49.342;10.802;2022-11-23T07:45:23;4.50;99.90
11152;DHT22;5630;49.342;10.802;2022-11-23T07:48:04;4.50;99.90
11152;DHT22;5630;49.342;10.802;2022-11-23T07:50:30;5.60;99.90
11152;DHT22;5630;49.342;10.802;2022-11-23T07:52:56;7.00;99.90
11152;DHT22;5630;49.342;10.802;2022-11-23T07:55:22;7.70;99.90
11152;DHT22;5630;49.342;10.802;2022-11-23T07:57:52;8.10;99.90
11152;DHT22;5630;49.342;10.802;2022-11-23T08:00:18;7.70;99.90
11152;DHT22;5630;49.342;10.802;2022-11-23T08:02:44;7.60;99.90
11152;DHT22;5630;49.342;10.802;2022-11-23T08:05:10;7.20;99.90
11152;DHT22;5630;49.342;10.802;2022-11-23T08:07:36;6.80;99.90
11152;DHT22;5630;49.342;10.802;2022-11-23T08:10:01;6.30;99.90
11152;DHT22;5630;49.342;10.802;2022-11-23T08:12:27;6.20;99.90
11152;DHT22;5630;49.342;10.802;2022-11-23T08:14:52;7.30;99.90
11152;DHT22;5630;49.342;10.802;2022-11-23T08:17:18;7.90;99.90
11152;DHT22;5630;49.342;10.802;2022-11-23T08:19:43;7.40;99.90
11152;DHT22;5630;49.342;10.802;2022-11-23T08:22:09;6.90;99.90
11152;DHT22;5630;49.342;10.802;2022-11-23T08:24:35;6.80;99.90
11152;DHT22;5630;49.342;10.802;2022-11-23T08:27:00;6.50;99.90
11152;DHT22;5630;49.342;10.802;2022-11-23T08:29:26;7.00;99.90
11152;DHT22;5630;49.342;10.802;2022-11-23T08:31:52;7.40;99.90
11152;DHT22;5630;49.342;10.802;2022-11-23T08:34:18;8.10;99.90
11152;DHT22;5630;49.342;10.802;2022-11-23T08:36:44;8.70;99.90
11152;DHT22;5630;49.342;10.802;2022-11-23T08:39:10;9.20;99.90
11152;DHT22;5630;49.342;10.802;2022-11-23T08:41:36;9.60;99.90
11152;DHT22;5630;49.342;10.802;2022-11-23T08:44:03;9.30;99.90
11152;DHT22;5630;49.342;10.802;2022-11-23T08:46:29;8.80;99.90
11152;DHT22;5630;49.342;10.802;2022-11-23T08:48:55;8.30;99.90
11152;DHT22;5630;49.342;10.802;2022-11-23T08:51:20;7.80;99.90
11152;DHT22;5630;49.342;10.802;2022-11-23T08:53:49;7.50;99.90
11152;DHT22;5630;49.342;10.802;2022-11-23T08:56:15;7.10;99.90
11152;DHT22;5630;49.342;10.802;2022-11-23T08:58:41;6.90;99.90
11152;DHT22;5630;49.342;10.802;2022-11-23T09:01:14;6.50;99.90
11152;DHT22;5630;49.342;10.802;2022-11-23T09:03:40;6.40;99.90
11152;DHT22;5630;49.342;10.802;2022-11-23T09:06:06;6.30;99.90
11152;DHT22;5630;49.342;10.802;2022-11-23T09:08:32;6.20;99.90
11152;DHT22;5630;49.342;10.802;2022-11-23T09:11:02;6.10;99.90
11152;DHT22;5630;49.342;10.802;2022-11-23T09:13:28;6.00;99.90
11152;DHT22;5630;49.342;10.802;2022-11-23T09:15:58;6.00;99.90
11152;DHT22;5630;49.342;10.802;2022-11-23T09:18:25;5.90;99.90
11152;DHT22;5630;49.342;10.802;2022-11-23T09:20:50;5.90;99.90
11152;DHT22;5630;49.342;10.802;2022-11-23T09:23:16;5.80;99.90
11152;DHT22;5630;49.342;10.802;2022-11-23T09:25:42;5.70;99.90
11152;DHT22;5630;49.342;10.802;2022-11-23T09:28:12;5.80;99.90
11152;DHT22;5630;49.342;10.802;2022-11-23T09:30:40;5.90;99.90
11152;DHT22;5630;49.342;10.802;2022-11-23T09:33:06;5.90;99.90
11152;DHT22;5630;49.342;10.802;2022-11-23T09:35:33;5.90;99.90
11152;DHT22;5630;49.342;10.802;2022-11-23T09:37:58;5.90;99.90
11152;DHT22;5630;49.342;10.802;2022-11-23T09:40:36;6.00;99.90
11152;DHT22;5630;49.342;10.802;2022-11-23T09:45:55;6.10;99.90
11152;DHT22;5630;49.342;10.802;2022-11-23T09:51:16;6.20;99.90
11152;DHT22;5630;49.342;10.802;2022-11-23T09:56:20;6.30;99.90
11152;DHT22;5630;49.342;10.802;2022-11-23T09:58:50;6.40;99.90
11152;DHT22;5630;49.342;10.802;2022-11-23T10:01:17;6.50;99.90
11152;DHT22;5630;49.342;10.802;2022-11-23T10:03:43;6.60;99.90
11152;DHT22;5630;49.342;10.802;2022-11-23T10:08:43;6.70;99.90
11152;DHT22;5630;49.342;10.802;2022-11-23T10:17:07;7.00;99.90
11152;DHT22;5630;49.342;10.802;2022-11-23T10:24:32;7.40;99.90
11152;DHT22;5630;49.342;10.802;2022-11-23T10:26:58;7.80;99.90
11152;DHT22;5630;49.342;10.802;2022-11-23T10:29:34;8.60;99.90
11152;DHT22;5630;49.342;10.802;2022-11-23T10:31:59;8.70;99.90
11152;DHT22;5630;49.342;10.802;2022-11-23T10:34:48;8.80;99.90
11152;DHT22;5630;49.342;10.802;2022-11-23T10:37:16;9.00;99.90
11152;DHT22;5630;49.342;10.802;2022-11-23T10:39:42;9.20;99.90
11152;DHT22;5630;49.342;10.802;2022-11-23T10:42:32;9.30;99.90
11152;DHT22;5630;49.342;10.802;2022-11-23T10:45:00;9.50;99.90
11152;DHT22;5630;49.342;10.802;2022-11-23T10:47:35;9.80;99.90
11152;DHT22;5630;49.342;10.802;2022-11-23T10:50:02;10.10;99.90
11152;DHT22;5630;49.342;10.802;2022-11-23T10:52:30;10.20;99.90
11152;DHT22;5630;49.342;10.802;2022-11-23T10:55:00;10.40;99.90
11152;DHT22;5630;49.342;10.802;2022-11-23T11:02:41;11.20;99.90
11152;DHT22;5630;49.342;10.802;2022-11-23T11:05:37;11.40;99.90
11152;DHT22;5630;49.342;10.802;2022-11-23T11:08:17;11.60;99.90
11152;DHT22;5630;49.342;10.802;2022-11-23T11:11:02;11.70;99.90
11152;DHT22;5630;49.342;10.802;2022-11-23T11:13:40;11.70;99.90
11152;DHT22;5630;49.342;10.802;2022-11-23T11:16:21;11.80;99.90
11152;DHT22;5630;49.342;10.802;2022-11-23T11:18:49;12.00;99.90
11152;DHT22;5630;49.342;10.802;2022-11-23T11:21:35;12.00;99.90
11152;DHT22;5630;49.342;10.802;2022-11-23T11:24:16;12.10;99.90
11152;DHT22;5630;49.342;10.802;2022-11-23T11:26:58;12.20;99.90
11152;DHT22;5630;49.342;10.802;2022-11-23T11:32:20;12.40;99.90
11152;DHT22;5630;49.342;10.802;2022-11-23T11:34:58;12.30;99.90
11152;DHT22;5630;49.342;10.802;2022-11-23T11:37:36;12.20;99.90
11152;DHT22;5630;49.342;10.802;2022-11-23T11:40:16;12.20;99.90
11152;DHT22;5630;49.342;10.802;2022-11-23T11:42:52;12.10;99.90
11152;DHT22;5630;49.342;10.802;2022-11-23T11:45:28;12.10;99.90
11152;DHT22;5630;49.342;10.802;2022-11-23T11:48:07;12.10;99.90
11152;DHT22;5630;49.342;10.802;2022-11-23T11:50:42;12.00;99.90
11152;DHT22;5630;49.342;10.802;2022-11-23T11:53:16;11.90;99.90
11152;DHT22;5630;49.342;10.802;2022-11-23T11:55:57;11.90;99.90
11152;DHT22;5630;49.342;10.802;2022-11-23T11:58:24;11.90;99.90
11152;DHT22;5630;49.342;10.802;2022-11-23T12:01:03;11.90;99.90
11152;DHT22;5630;49.342;10.802;2022-11-23T12:03:45;12.00;99.90
11152;DHT22;5630;49.342;10.802;2022-11-23T12:06:27;12.00;99.90
11152;DHT22;5630;49.342;10.802;2022-11-23T12:09:04;11.90;99.90
11152;DHT22;5630;49.342;10.802;2022-11-23T12:11:31;11.90;99.90
11152;DHT22;5630;49.342;10.802;2022-11-23T12:14:02;11.90;99.90
11152;DHT22;5630;49.342;10.802;2022-11-23T12:19:24;11.80;99.90
11152;DHT22;5630;49.342;10.802;2022-11-23T12:27:43;11.90;99.90
11152;DHT22;5630;49.342;10.802;2022-11-23T12:30:38;11.80;99.90
11152;DHT22;5630;49.342;10.802;2022-11-23T12:33:49;11.70;99.90
11152;DHT22;5630;49.342;10.802;2022-11-23T12:36:53;11.70;99.90
11152;DHT22;5630;49.342;10.802;2022-11-23T12:42:15;11.60;99.90
11152;DHT22;5630;49.342;10.802;2022-11-23T12:47:53;11.50;99.90
11152;DHT22;5630;49.342;10.802;2022-11-23T12:51:25;11.40;99.90
11152;DHT22;5630;49.342;10.802;2022-11-23T12:53:43;11.40;99.90
11152;DHT22;5630;49.342;10.802;2022-11-23T12:58:45;11.30;99.90
11152;DHT22;5630;49.342;10.802;2022-11-23T13:01:19;11.30;99.90
11152;DHT22;5630;49.342;10.802;2022-11-23T13:10:03;11.30;99.90
11152;DHT22;5630;49.342;10.802;2022-11-23T13:13:00;11.50;99.90
11152;DHT22;5630;49.342;10.802;2022-11-23T13:23:44;11.90;99.90
11152;DHT22;5630;49.342;10.802;2022-11-23T13:26:20;11.70;99.90
11152;DHT22;5630;49.342;10.802;2022-11-23T13:28:47;11.60;99.90
11152;DHT22;5630;49.342;10.802;2022-11-23T13:31:28;11.30;99.90
11152;DHT22;5630;49.342;10.802;2022-11-23T13:33:59;11.30;99.90
11152;DHT22;5630;49.342;10.802;2022-11-23T13:38:55;10.90;99.90
11152;DHT22;5630;49.342;10.802;2022-11-23T13:46:43;10.60;99.90
11152;DHT22;5630;49.342;10.802;2022-11-23T13:57:18;10.20;99.90
11152;DHT22;5630;49.342;10.802;2022-11-23T13:59:44;10.20;99.90
11152;DHT22;5630;49.342;10.802;2022-11-23T14:02:27;10.20;99.90
11152;DHT22;5630;49.342;10.802;2022-11-23T14:08:00;10.20;99.90
11152;DHT22;5630;49.342;10.802;2022-11-23T14:10:29;10.10;99.90
11152;DHT22;5630;49.342;10.802;2022-11-23T14:13:08;10.00;99.90
11152;DHT22;5630;49.342;10.802;2022-11-23T14:15:38;10.20;99.90
11152;DHT22;5630;49.342;10.802;2022-11-23T14:34:36;9.50;99.90
11152;DHT22;5630;49.342;10.802;2022-11-23T14:42:41;9.30;99.90
11152;DHT22;5630;49.342;10.802;2022-11-23T14:45:13;9.30;99.90
11152;DHT22;5630;49.342;10.802;2022-11-23T14:47:39;9.30;99.90
11152;DHT22;5630;49.342;10.802;2022-11-23T14:50:05;9.20;99.90
11152;DHT22;5630;49.342;10.802;2022-11-23T14:52:43;9.10;99.90
11152;DHT22;5630;49.342;10.802;2022-11-23T14:55:18;9.10;99.90
11152;DHT22;5630;49.342;10.802;2022-11-23T14:57:46;9.10;99.90
11152;DHT22;5630;49.342;10.802;2022-11-23T15:03:12;8.90;99.90
11152;DHT22;5630;49.342;10.802;2022-11-23T15:05:47;8.80;99.90
11152;DHT22;5630;49.342;10.802;2022-11-23T15:08:23;8.80;99.90
11152;DHT22;5630;49.342;10.802;2022-11-23T15:11:00;8.70;99.90
11152;DHT22;5630;49.342;10.802;2022-11-23T15:13:30;8.60;99.90
11152;DHT22;5630;49.342;10.802;2022-11-23T15:15:57;8.50;99.90
11152;DHT22;5630;49.342;10.802;2022-11-23T15:18:33;8.40;99.90
11152;DHT22;5630;49.342;10.802;2022-11-23T15:21:20;8.40;99.90
11152;DHT22;5630;49.342;10.802;2022-11-23T15:23:48;8.30;99.90
11152;DHT22;5630;49.342;10.802;2022-11-23T15:26:27;8.20;99.90
11152;DHT22;5630;49.342;10.802;2022-11-23T15:28:53;8.10;99.90
11152;DHT22;5630;49.342;10.802;2022-11-23T15:34:04;7.90;99.90
11152;DHT22;5630;49.342;10.802;2022-11-23T15:36:32;7.80;99.90
11152;DHT22;5630;49.342;10.802;2022-11-23T15:39:01;7.70;99.90
11152;DHT22;5630;49.342;10.802;2022-11-23T15:41:27;7.60;99.90
11152;DHT22;5630;49.342;10.802;2022-11-23T15:43:56;7.60;99.90
11152;DHT22;5630;49.342;10.802;2022-11-23T15:46:24;7.50;99.90
11152;DHT22;5630;49.342;10.802;2022-11-23T15:48:53;7.40;99.90
11152;DHT22;5630;49.342;10.802;2022-11-23T15:51:28;7.40;99.90
11152;DHT22;5630;49.342;10.802;2022-11-23T15:53:58;7.30;99.90
11152;DHT22;5630;49.342;10.802;2022-11-23T15:56:30;7.20;99.90
11152;DHT22;5630;49.342;10.802;2022-11-23T15:59:01;7.20;99.90
11152;DHT22;5630;49.342;10.802;2022-11-23T16:01:28;7.10;99.90
